createdAt,value
2017-03-07T00:00:01.948Z,854.8
2017-03-07T00:00:06.320Z,854.8
2017-03-07T00:00:10.523Z,854.82
2017-03-07T00:00:15.169Z,854.81
2017-03-07T00:00:19.814Z,854.79
2017-03-07T00:00:24.302Z,854.81
2017-03-07T00:00:28.947Z,854.85
2017-03-07T00:00:33.578Z,854.81
2017-03-07T00:00:38.221Z,854.81
2017-03-07T00:00:42.882Z,854.85
2017-03-07T00:00:47.555Z,854.84
2017-03-07T00:00:52.182Z,854.81
2017-03-07T00:00:56.705Z,854.83
2017-03-07T00:01:01.360Z,854.81
2017-03-07T00:01:06.107Z,854.82
2017-03-07T00:01:10.606Z,854.81
2017-03-07T00:01:15.229Z,854.79
2017-03-07T00:01:19.862Z,854.81
2017-03-07T00:01:24.348Z,854.76
2017-03-07T00:01:29.005Z,854.78
2017-03-07T00:01:33.643Z,854.77
2017-03-07T00:01:38.270Z,854.81
2017-03-07T00:01:42.946Z,854.8
2017-03-07T00:01:47.590Z,854.79
2017-03-07T00:01:52.086Z,854.82
2017-03-07T00:01:56.774Z,854.78
2017-03-07T00:02:01.404Z,854.79
2017-03-07T00:02:05.934Z,854.76
2017-03-07T00:02:10.437Z,854.78
2017-03-07T00:02:15.072Z,854.78
2017-03-07T00:02:19.575Z,854.78
2017-03-07T00:02:24.071Z,854.79
2017-03-07T00:02:28.706Z,854.8
2017-03-07T00:02:33.331Z,854.78
2017-03-07T00:02:37.983Z,854.76
2017-03-07T00:02:42.656Z,854.76
2017-03-07T00:02:47.150Z,854.78
2017-03-07T00:02:51.818Z,854.76
2017-03-07T00:02:56.478Z,854.78
2017-03-07T00:03:01.122Z,854.76
2017-03-07T00:03:06.116Z,854.79
2017-03-07T00:03:10.752Z,854.81
2017-03-07T00:03:15.250Z,854.77
2017-03-07T00:03:19.729Z,854.75
2017-03-07T00:03:24.267Z,854.76
2017-03-07T00:03:28.895Z,854.75
2017-03-07T00:03:33.519Z,854.71
2017-03-07T00:03:37.858Z,854.7
2017-03-07T00:03:42.344Z,854.75
2017-03-07T00:03:46.847Z,854.69
2017-03-07T00:03:51.496Z,854.71
2017-03-07T00:03:56.150Z,854.71
2017-03-07T00:04:00.807Z,854.72
2017-03-07T00:04:05.801Z,854.73
2017-03-07T00:04:10.146Z,854.69
2017-03-07T00:04:14.699Z,854.73
2017-03-07T00:04:19.171Z,854.7
2017-03-07T00:04:23.686Z,854.71
2017-03-07T00:04:28.326Z,854.69
2017-03-07T00:04:32.964Z,854.69
2017-03-07T00:04:37.611Z,854.66
2017-03-07T00:04:42.135Z,854.68
2017-03-07T00:04:46.763Z,854.69
2017-03-07T00:04:51.255Z,854.67
2017-03-07T00:04:55.741Z,854.65
2017-03-07T00:05:00.085Z,854.69
2017-03-07T00:05:04.742Z,854.68
2017-03-07T00:05:09.380Z,854.68
2017-03-07T00:05:14.021Z,854.69
2017-03-07T00:05:18.668Z,854.65
2017-03-07T00:05:23.153Z,854.64
2017-03-07T00:05:27.650Z,854.65
2017-03-07T00:05:32.150Z,854.64
2017-03-07T00:05:36.799Z,854.64
2017-03-07T00:05:41.288Z,854.59
2017-03-07T00:05:45.941Z,854.6
2017-03-07T00:05:50.568Z,854.61
2017-03-07T00:05:55.070Z,854.59
2017-03-07T00:05:59.725Z,854.6
2017-03-07T00:06:04.363Z,854.57
2017-03-07T00:06:09.004Z,854.6
2017-03-07T00:06:13.505Z,854.61
2017-03-07T00:06:18.139Z,854.63
2017-03-07T00:06:22.632Z,854.6
2017-03-07T00:06:27.285Z,854.57
2017-03-07T00:06:31.842Z,854.57
2017-03-07T00:06:36.339Z,854.56
2017-03-07T00:06:40.978Z,854.57
2017-03-07T00:06:45.599Z,854.54
2017-03-07T00:06:50.248Z,854.5
2017-03-07T00:06:54.889Z,854.52
2017-03-07T00:06:59.542Z,854.53
2017-03-07T00:07:04.394Z,854.51
2017-03-07T00:07:09.035Z,854.56
2017-03-07T00:07:13.673Z,854.53
2017-03-07T00:07:18.160Z,854.55
2017-03-07T00:07:22.795Z,854.54
2017-03-07T00:07:27.457Z,854.52
2017-03-07T00:07:32.101Z,854.53
2017-03-07T00:07:36.594Z,854.51
2017-03-07T00:07:41.226Z,854.54
2017-03-07T00:07:45.744Z,854.52
2017-03-07T00:07:50.242Z,854.49
2017-03-07T00:07:54.743Z,854.5
2017-03-07T00:07:59.364Z,854.53
2017-03-07T00:08:04.223Z,854.49
2017-03-07T00:08:08.731Z,854.48
2017-03-07T00:08:13.367Z,854.49
2017-03-07T00:08:17.997Z,854.47
2017-03-07T00:08:22.488Z,854.42
2017-03-07T00:08:27.131Z,854.44
2017-03-07T00:08:31.826Z,854.44
2017-03-07T00:08:36.471Z,854.43
2017-03-07T00:08:41.128Z,854.42
2017-03-07T00:08:45.785Z,854.44
2017-03-07T00:08:50.432Z,854.46
2017-03-07T00:08:54.768Z,854.45
2017-03-07T00:08:59.427Z,854.43
2017-03-07T00:09:04.182Z,854.45
2017-03-07T00:09:08.815Z,854.44
2017-03-07T00:09:13.435Z,854.44
2017-03-07T00:09:18.072Z,854.42
2017-03-07T00:09:22.713Z,854.43
2017-03-07T00:09:27.386Z,854.45
2017-03-07T00:09:32.029Z,854.41
2017-03-07T00:09:36.650Z,854.41
2017-03-07T00:09:41.128Z,854.41
2017-03-07T00:09:45.620Z,854.42
2017-03-07T00:09:50.263Z,854.42
2017-03-07T00:09:54.908Z,854.43
2017-03-07T00:09:59.537Z,854.38
2017-03-07T00:10:04.026Z,854.39
2017-03-07T00:10:08.524Z,854.39
2017-03-07T00:10:13.192Z,854.41
2017-03-07T00:10:17.693Z,854.3
2017-03-07T00:10:22.348Z,854.32
2017-03-07T00:10:26.985Z,854.3
2017-03-07T00:10:31.628Z,854.32
2017-03-07T00:10:36.258Z,854.32
2017-03-07T00:10:40.764Z,854.35
2017-03-07T00:10:45.411Z,854.34
2017-03-07T00:10:50.063Z,854.36
2017-03-07T00:10:54.545Z,854.32
2017-03-07T00:10:59.184Z,854.35
2017-03-07T00:11:03.816Z,854.33
2017-03-07T00:11:08.480Z,854.33
2017-03-07T00:11:13.122Z,854.34
2017-03-07T00:11:17.741Z,854.33
2017-03-07T00:11:22.258Z,854.31
2017-03-07T00:11:26.901Z,854.3
2017-03-07T00:11:31.548Z,854.33
2017-03-07T00:11:35.889Z,854.31
2017-03-07T00:11:40.567Z,854.28
2017-03-07T00:11:45.214Z,854.29
2017-03-07T00:11:49.852Z,854.31
2017-03-07T00:11:54.352Z,854.37
2017-03-07T00:11:58.997Z,854.35
2017-03-07T00:12:03.812Z,854.33
2017-03-07T00:12:08.305Z,854.33
2017-03-07T00:12:12.940Z,854.33
2017-03-07T00:12:17.586Z,854.33
2017-03-07T00:12:21.923Z,854.33
2017-03-07T00:12:26.561Z,854.31
2017-03-07T00:12:31.219Z,854.33
2017-03-07T00:12:35.872Z,854.34
2017-03-07T00:12:40.524Z,854.34
2017-03-07T00:12:45.193Z,854.34
2017-03-07T00:12:49.818Z,854.33
2017-03-07T00:12:54.318Z,854.32
2017-03-07T00:12:58.979Z,854.29
2017-03-07T00:13:03.609Z,854.34
2017-03-07T00:13:08.249Z,854.33
2017-03-07T00:13:12.885Z,854.31
2017-03-07T00:13:17.535Z,854.32
2017-03-07T00:13:22.021Z,854.33
2017-03-07T00:13:26.661Z,854.32
2017-03-07T00:13:31.157Z,854.28
2017-03-07T00:13:35.821Z,854.32
2017-03-07T00:13:40.311Z,854.28
2017-03-07T00:13:44.969Z,854.31
2017-03-07T00:13:49.623Z,854.32
2017-03-07T00:13:54.271Z,854.35
2017-03-07T00:13:58.899Z,854.34
2017-03-07T00:14:03.540Z,854.34
2017-03-07T00:14:08.204Z,854.34
2017-03-07T00:14:12.708Z,854.33
2017-03-07T00:14:17.369Z,854.31
2017-03-07T00:14:21.702Z,854.34
2017-03-07T00:14:26.364Z,854.32
2017-03-07T00:14:30.854Z,854.34
2017-03-07T00:14:35.486Z,854.3
2017-03-07T00:14:40.021Z,854.29
2017-03-07T00:14:44.672Z,854.33
2017-03-07T00:14:49.307Z,854.31
2017-03-07T00:14:53.900Z,854.31
2017-03-07T00:14:58.534Z,854.31
2017-03-07T00:15:03.017Z,854.3
2017-03-07T00:15:07.550Z,854.28
2017-03-07T00:15:12.193Z,854.3
2017-03-07T00:15:16.688Z,854.33
2017-03-07T00:15:21.326Z,854.31
2017-03-07T00:15:25.696Z,854.31
2017-03-07T00:15:30.328Z,854.32
2017-03-07T00:15:34.967Z,854.29
2017-03-07T00:15:39.473Z,854.32
2017-03-07T00:15:43.964Z,854.32
2017-03-07T00:15:48.621Z,854.31
2017-03-07T00:15:53.271Z,854.32
2017-03-07T00:15:57.926Z,854.32
2017-03-07T00:16:02.562Z,854.3
2017-03-07T00:16:06.914Z,854.31
2017-03-07T00:16:11.556Z,854.31
2017-03-07T00:16:16.194Z,854.29
2017-03-07T00:16:20.853Z,854.32
2017-03-07T00:16:25.530Z,854.33
2017-03-07T00:16:30.029Z,854.27
2017-03-07T00:16:34.684Z,854.28
2017-03-07T00:16:39.224Z,854.3
2017-03-07T00:16:43.891Z,854.32
2017-03-07T00:16:48.549Z,854.31
2017-03-07T00:16:53.187Z,854.3
2017-03-07T00:16:57.695Z,854.26
2017-03-07T00:17:02.334Z,854.31
2017-03-07T00:17:06.968Z,854.34
2017-03-07T00:17:11.619Z,854.32
2017-03-07T00:17:16.264Z,854.3
2017-03-07T00:17:20.795Z,854.31
2017-03-07T00:17:25.288Z,854.33
2017-03-07T00:17:29.788Z,854.35
2017-03-07T00:17:34.124Z,854.35
2017-03-07T00:17:38.759Z,854.34
2017-03-07T00:17:43.408Z,854.34
2017-03-07T00:17:48.054Z,854.36
2017-03-07T00:17:52.704Z,854.36
2017-03-07T00:17:57.363Z,854.33
2017-03-07T00:18:02.025Z,854.37
2017-03-07T00:18:06.674Z,854.37
2017-03-07T00:18:11.219Z,854.33
2017-03-07T00:18:15.864Z,854.34
2017-03-07T00:18:20.507Z,854.35
2017-03-07T00:18:25.208Z,854.37
2017-03-07T00:18:29.861Z,854.35
2017-03-07T00:18:34.516Z,854.33
2017-03-07T00:18:39.014Z,854.35
2017-03-07T00:18:43.668Z,854.34
2017-03-07T00:18:48.185Z,854.35
2017-03-07T00:18:52.827Z,854.35
2017-03-07T00:18:57.459Z,854.33
2017-03-07T00:19:01.935Z,854.35
2017-03-07T00:19:06.560Z,854.34
2017-03-07T00:19:11.197Z,854.33
2017-03-07T00:19:15.847Z,854.36
2017-03-07T00:19:20.334Z,854.33
2017-03-07T00:19:24.681Z,854.32
2017-03-07T00:19:29.332Z,854.34
2017-03-07T00:19:33.827Z,854.29
2017-03-07T00:19:38.466Z,854.3
2017-03-07T00:19:42.945Z,854.29
2017-03-07T00:19:47.591Z,854.39
2017-03-07T00:19:52.082Z,854.37
2017-03-07T00:19:56.727Z,854.35
2017-03-07T00:20:01.378Z,854.36
2017-03-07T00:20:06.381Z,854.36
2017-03-07T00:20:10.738Z,854.33
2017-03-07T00:20:15.389Z,854.41
2017-03-07T00:20:20.021Z,854.37
2017-03-07T00:20:24.507Z,854.36
2017-03-07T00:20:29.164Z,854.36
2017-03-07T00:20:33.811Z,854.41
2017-03-07T00:20:38.293Z,854.39
2017-03-07T00:20:42.944Z,854.38
2017-03-07T00:20:47.595Z,854.37
2017-03-07T00:20:52.076Z,854.37
2017-03-07T00:20:56.740Z,854.39
2017-03-07T00:21:01.385Z,854.4
2017-03-07T00:21:06.013Z,854.39
2017-03-07T00:21:10.517Z,854.39
2017-03-07T00:21:15.174Z,854.39
2017-03-07T00:21:19.677Z,854.35
2017-03-07T00:21:24.176Z,854.4
2017-03-07T00:21:28.823Z,854.37
2017-03-07T00:21:33.468Z,854.4
2017-03-07T00:21:37.972Z,854.39
2017-03-07T00:21:42.603Z,854.4
2017-03-07T00:21:47.246Z,854.38
2017-03-07T00:21:51.874Z,854.4
2017-03-07T00:21:56.503Z,854.39
2017-03-07T00:22:01.152Z,854.41
2017-03-07T00:22:05.796Z,854.38
2017-03-07T00:22:09.992Z,854.4
2017-03-07T00:22:14.616Z,854.4
2017-03-07T00:22:19.116Z,854.4
2017-03-07T00:22:23.765Z,854.42
2017-03-07T00:22:28.406Z,854.39
2017-03-07T00:22:33.062Z,854.41
2017-03-07T00:22:37.696Z,854.42
2017-03-07T00:22:42.187Z,854.43
2017-03-07T00:22:46.820Z,854.42
2017-03-07T00:22:51.460Z,854.39
2017-03-07T00:22:56.103Z,854.4
2017-03-07T00:23:00.733Z,854.37
2017-03-07T00:23:05.670Z,854.35
2017-03-07T00:23:10.304Z,854.4
2017-03-07T00:23:14.941Z,854.41
2017-03-07T00:23:19.139Z,854.37
2017-03-07T00:23:23.802Z,854.39
2017-03-07T00:23:28.429Z,854.45
2017-03-07T00:23:33.072Z,854.39
2017-03-07T00:23:37.566Z,854.43
2017-03-07T00:23:42.219Z,854.41
2017-03-07T00:23:46.862Z,854.46
2017-03-07T00:23:51.501Z,854.41
2017-03-07T00:23:56.133Z,854.38
2017-03-07T00:24:00.649Z,854.37
2017-03-07T00:24:05.000Z,854.39
2017-03-07T00:24:09.631Z,854.38
2017-03-07T00:24:14.275Z,854.38
2017-03-07T00:24:18.799Z,854.36
2017-03-07T00:24:23.303Z,854.34
2017-03-07T00:24:27.806Z,854.37
2017-03-07T00:24:32.466Z,854.35
2017-03-07T00:24:37.104Z,854.33
2017-03-07T00:24:41.747Z,854.35
2017-03-07T00:24:46.383Z,854.36
2017-03-07T00:24:51.021Z,854.35
2017-03-07T00:24:55.678Z,854.35
2017-03-07T00:25:00.308Z,854.34
2017-03-07T00:25:05.035Z,854.32
2017-03-07T00:25:09.713Z,854.33
2017-03-07T00:25:14.206Z,854.32
2017-03-07T00:25:18.845Z,854.32
2017-03-07T00:25:23.475Z,854.34
2017-03-07T00:25:28.103Z,854.3
2017-03-07T00:25:32.610Z,854.32
2017-03-07T00:25:37.252Z,854.26
2017-03-07T00:25:41.935Z,854.32
2017-03-07T00:25:46.434Z,854.32
2017-03-07T00:25:50.932Z,854.29
2017-03-07T00:25:55.586Z,854.32
2017-03-07T00:26:00.093Z,854.31
2017-03-07T00:26:04.791Z,854.3
2017-03-07T00:26:09.269Z,854.28
2017-03-07T00:26:13.930Z,854.29
2017-03-07T00:26:18.434Z,854.28
2017-03-07T00:26:22.775Z,854.3
2017-03-07T00:26:27.463Z,854.29
2017-03-07T00:26:32.091Z,854.34
2017-03-07T00:26:36.737Z,854.31
2017-03-07T00:26:41.380Z,854.31
2017-03-07T00:26:45.878Z,854.28
2017-03-07T00:26:50.527Z,854.27
2017-03-07T00:26:55.207Z,854.28
2017-03-07T00:26:59.832Z,854.25
2017-03-07T00:27:04.477Z,854.26
2017-03-07T00:27:08.988Z,854.26
2017-03-07T00:27:13.627Z,854.25
2017-03-07T00:27:18.273Z,854.24
2017-03-07T00:27:22.919Z,854.24
2017-03-07T00:27:27.551Z,854.25
2017-03-07T00:27:32.176Z,854.22
2017-03-07T00:27:36.818Z,854.21
2017-03-07T00:27:41.472Z,854.22
2017-03-07T00:27:46.139Z,854.17
2017-03-07T00:27:50.782Z,854.22
2017-03-07T00:27:55.438Z,854.16
2017-03-07T00:28:00.066Z,854.15
2017-03-07T00:28:04.868Z,854.15
2017-03-07T00:28:09.231Z,854.12
2017-03-07T00:28:13.864Z,854.12
2017-03-07T00:28:18.356Z,854.11
2017-03-07T00:28:22.683Z,854.13
2017-03-07T00:28:27.318Z,854.13
2017-03-07T00:28:31.958Z,854.11
2017-03-07T00:28:36.329Z,854.14
2017-03-07T00:28:40.867Z,854.12
2017-03-07T00:28:45.514Z,854.1
2017-03-07T00:28:50.135Z,854.09
2017-03-07T00:28:54.627Z,854.04
2017-03-07T00:28:59.133Z,854.09
2017-03-07T00:29:03.830Z,854.09
2017-03-07T00:29:08.511Z,854.08
2017-03-07T00:29:12.996Z,854.07
2017-03-07T00:29:17.669Z,854.02
2017-03-07T00:29:22.005Z,854.01
2017-03-07T00:29:26.510Z,854.01
2017-03-07T00:29:31.040Z,853.99
2017-03-07T00:29:35.662Z,854.02
2017-03-07T00:29:40.159Z,854.05
2017-03-07T00:29:44.806Z,854.01
2017-03-07T00:29:49.449Z,854
2017-03-07T00:29:54.077Z,853.98
2017-03-07T00:29:58.759Z,853.98
2017-03-07T00:30:03.455Z,854
2017-03-07T00:30:07.948Z,853.98
2017-03-07T00:30:12.585Z,853.98
2017-03-07T00:30:17.244Z,853.97
2017-03-07T00:30:21.885Z,853.93
2017-03-07T00:30:26.397Z,853.96
2017-03-07T00:30:31.042Z,853.94
2017-03-07T00:30:35.687Z,853.95
2017-03-07T00:30:40.196Z,853.93
2017-03-07T00:30:44.845Z,853.94
2017-03-07T00:30:49.505Z,853.91
2017-03-07T00:30:54.133Z,853.91
2017-03-07T00:30:58.630Z,853.92
2017-03-07T00:31:03.323Z,853.9
2017-03-07T00:31:07.795Z,853.91
2017-03-07T00:31:12.307Z,853.88
2017-03-07T00:31:16.958Z,853.9
2017-03-07T00:31:21.593Z,853.9
2017-03-07T00:31:26.233Z,853.85
2017-03-07T00:31:30.877Z,853.88
2017-03-07T00:31:35.359Z,853.85
2017-03-07T00:31:39.723Z,853.86
2017-03-07T00:31:44.361Z,853.87
2017-03-07T00:31:48.988Z,853.88
2017-03-07T00:31:53.624Z,853.85
2017-03-07T00:31:58.264Z,853.83
2017-03-07T00:32:03.188Z,853.85
2017-03-07T00:32:07.683Z,853.77
2017-03-07T00:32:12.322Z,853.77
2017-03-07T00:32:16.968Z,853.76
2017-03-07T00:32:21.607Z,853.79
2017-03-07T00:32:26.242Z,853.75
2017-03-07T00:32:30.893Z,853.76
2017-03-07T00:32:35.534Z,853.74
2017-03-07T00:32:40.086Z,853.7
2017-03-07T00:32:44.735Z,853.7
2017-03-07T00:32:49.234Z,853.69
2017-03-07T00:32:53.878Z,853.7
2017-03-07T00:32:58.371Z,853.67
2017-03-07T00:33:03.331Z,853.65
2017-03-07T00:33:07.972Z,853.63
2017-03-07T00:33:12.466Z,853.62
2017-03-07T00:33:17.104Z,853.6
2017-03-07T00:33:21.728Z,853.54
2017-03-07T00:33:26.235Z,853.52
2017-03-07T00:33:30.748Z,853.55
2017-03-07T00:33:35.376Z,853.54
2017-03-07T00:33:39.717Z,853.52
2017-03-07T00:33:44.379Z,853.57
2017-03-07T00:33:49.020Z,853.54
2017-03-07T00:33:53.669Z,853.46
2017-03-07T00:33:58.167Z,853.43
2017-03-07T00:34:03.170Z,853.51
2017-03-07T00:34:07.644Z,853.52
2017-03-07T00:34:12.286Z,853.48
2017-03-07T00:34:16.786Z,853.46
2017-03-07T00:34:21.290Z,853.44
2017-03-07T00:34:25.925Z,853.46
2017-03-07T00:34:30.578Z,853.39
2017-03-07T00:34:35.068Z,853.38
2017-03-07T00:34:39.701Z,853.4
2017-03-07T00:34:44.372Z,853.39
2017-03-07T00:34:48.871Z,853.35
2017-03-07T00:34:53.512Z,853.36
2017-03-07T00:34:58.160Z,853.36
2017-03-07T00:35:02.846Z,853.35
2017-03-07T00:35:07.398Z,853.37
2017-03-07T00:35:11.896Z,853.32
2017-03-07T00:35:16.532Z,853.27
2017-03-07T00:35:21.005Z,853.29
2017-03-07T00:35:25.493Z,853.32
2017-03-07T00:35:30.124Z,853.31
2017-03-07T00:35:34.636Z,853.3
2017-03-07T00:35:39.139Z,853.3
2017-03-07T00:35:43.648Z,853.27
2017-03-07T00:35:48.297Z,853.26
2017-03-07T00:35:52.941Z,853.25
2017-03-07T00:35:57.569Z,853.26
2017-03-07T00:36:02.471Z,853.24
2017-03-07T00:36:07.138Z,853.25
2017-03-07T00:36:11.805Z,853.25
2017-03-07T00:36:16.297Z,853.21
2017-03-07T00:36:20.939Z,853.18
2017-03-07T00:36:25.458Z,853.18
2017-03-07T00:36:30.090Z,853.18
2017-03-07T00:36:34.738Z,853.17
2017-03-07T00:36:39.230Z,853.17
2017-03-07T00:36:43.721Z,853.15
2017-03-07T00:36:48.388Z,853.14
2017-03-07T00:36:53.034Z,853.12
2017-03-07T00:36:57.683Z,853.13
2017-03-07T00:37:02.343Z,853.1
2017-03-07T00:37:07.002Z,853.14
2017-03-07T00:37:11.638Z,853.1
2017-03-07T00:37:16.309Z,853.07
2017-03-07T00:37:20.960Z,853.02
2017-03-07T00:37:25.317Z,853.04
2017-03-07T00:37:29.972Z,853.01
2017-03-07T00:37:34.607Z,853
2017-03-07T00:37:39.109Z,853.01
2017-03-07T00:37:43.738Z,852.97
2017-03-07T00:37:48.400Z,852.96
2017-03-07T00:37:53.037Z,852.97
2017-03-07T00:37:57.680Z,852.95
2017-03-07T00:38:02.519Z,852.96
2017-03-07T00:38:07.153Z,852.91
2017-03-07T00:38:11.797Z,852.92
2017-03-07T00:38:16.421Z,852.89
2017-03-07T00:38:21.079Z,852.87
2017-03-07T00:38:25.724Z,852.86
2017-03-07T00:38:30.371Z,852.83
2017-03-07T00:38:35.017Z,852.83
2017-03-07T00:38:39.498Z,852.85
2017-03-07T00:38:44.017Z,852.82
2017-03-07T00:38:48.504Z,852.81
2017-03-07T00:38:53.136Z,852.78
2017-03-07T00:38:57.634Z,852.79
2017-03-07T00:39:02.321Z,852.76
2017-03-07T00:39:06.980Z,852.74
2017-03-07T00:39:11.628Z,852.73
2017-03-07T00:39:16.280Z,852.74
2017-03-07T00:39:20.603Z,852.72
2017-03-07T00:39:25.249Z,852.7
2017-03-07T00:39:29.736Z,852.69
2017-03-07T00:39:34.407Z,852.64
2017-03-07T00:39:39.063Z,852.65
2017-03-07T00:39:43.703Z,852.66
2017-03-07T00:39:48.346Z,852.62
2017-03-07T00:39:52.983Z,852.62
2017-03-07T00:39:57.629Z,852.6
2017-03-07T00:40:02.277Z,852.59
2017-03-07T00:40:06.793Z,852.59
2017-03-07T00:40:11.299Z,852.57
2017-03-07T00:40:15.965Z,852.57
2017-03-07T00:40:20.475Z,852.52
2017-03-07T00:40:24.947Z,852.55
2017-03-07T00:40:29.617Z,852.52
2017-03-07T00:40:34.251Z,852.53
2017-03-07T00:40:38.903Z,852.46
2017-03-07T00:40:43.540Z,852.46
2017-03-07T00:40:48.178Z,852.47
2017-03-07T00:40:52.527Z,852.44
2017-03-07T00:40:57.181Z,852.47
2017-03-07T00:41:02.125Z,852.42
2017-03-07T00:41:06.754Z,852.42
2017-03-07T00:41:11.425Z,852.42
2017-03-07T00:41:15.906Z,852.4
2017-03-07T00:41:20.256Z,852.4
2017-03-07T00:41:24.774Z,852.36
2017-03-07T00:41:29.450Z,852.38
2017-03-07T00:41:34.077Z,852.33
2017-03-07T00:41:38.757Z,852.38
2017-03-07T00:41:43.134Z,852.33
2017-03-07T00:41:47.773Z,852.34
2017-03-07T00:41:52.409Z,852.33
2017-03-07T00:41:57.062Z,852.34
2017-03-07T00:42:01.728Z,852.3
2017-03-07T00:42:06.465Z,852.31
2017-03-07T00:42:11.104Z,852.26
2017-03-07T00:42:15.778Z,852.27
2017-03-07T00:42:20.299Z,852.27
2017-03-07T00:42:24.637Z,852.24
2017-03-07T00:42:29.282Z,852.26
2017-03-07T00:42:33.927Z,852.28
2017-03-07T00:42:38.437Z,852.27
2017-03-07T00:42:43.086Z,852.27
2017-03-07T00:42:47.723Z,852.24
2017-03-07T00:42:52.378Z,852.23
2017-03-07T00:42:57.020Z,852.23
2017-03-07T00:43:01.659Z,852.2
2017-03-07T00:43:06.485Z,852.2
2017-03-07T00:43:11.143Z,852.19
2017-03-07T00:43:15.811Z,852.22
2017-03-07T00:43:20.303Z,852.18
2017-03-07T00:43:24.943Z,852.11
2017-03-07T00:43:29.588Z,852.16
2017-03-07T00:43:34.229Z,852.18
2017-03-07T00:43:38.728Z,852.13
2017-03-07T00:43:43.364Z,852.16
2017-03-07T00:43:47.839Z,852.18
2017-03-07T00:43:52.323Z,852.15
2017-03-07T00:43:56.987Z,852.17
2017-03-07T00:44:01.627Z,852.12
2017-03-07T00:44:06.273Z,852.11
2017-03-07T00:44:10.811Z,852.14
2017-03-07T00:44:15.456Z,852.1
2017-03-07T00:44:20.097Z,852.12
2017-03-07T00:44:24.752Z,852.12
2017-03-07T00:44:29.385Z,852.12
2017-03-07T00:44:34.024Z,852.15
2017-03-07T00:44:38.668Z,852.12
2017-03-07T00:44:43.014Z,852.13
2017-03-07T00:44:47.654Z,852.11
2017-03-07T00:44:52.156Z,852.14
2017-03-07T00:44:56.814Z,852.11
2017-03-07T00:45:01.767Z,852.12
2017-03-07T00:45:06.434Z,852.1
2017-03-07T00:45:11.090Z,852.12
2017-03-07T00:45:15.722Z,852.11
2017-03-07T00:45:20.358Z,852.12
2017-03-07T00:45:24.847Z,852.1
2017-03-07T00:45:29.366Z,852.13
2017-03-07T00:45:33.996Z,852.11
2017-03-07T00:45:38.475Z,852.11
2017-03-07T00:45:43.111Z,852.11
2017-03-07T00:45:47.746Z,852.09
2017-03-07T00:45:52.402Z,852.11
2017-03-07T00:45:57.047Z,852.07
2017-03-07T00:46:01.677Z,852.06
2017-03-07T00:46:06.310Z,852.04
2017-03-07T00:46:10.804Z,852.07
2017-03-07T00:46:15.458Z,852.06
2017-03-07T00:46:19.946Z,852.05
2017-03-07T00:46:24.596Z,852.01
2017-03-07T00:46:29.222Z,852.01
2017-03-07T00:46:33.851Z,852
2017-03-07T00:46:38.498Z,852
2017-03-07T00:46:43.129Z,852
2017-03-07T00:46:47.770Z,852.01
2017-03-07T00:46:52.421Z,851.96
2017-03-07T00:46:56.898Z,851.99
2017-03-07T00:47:01.382Z,851.97
2017-03-07T00:47:06.039Z,851.97
2017-03-07T00:47:10.679Z,851.98
2017-03-07T00:47:15.331Z,851.96
2017-03-07T00:47:19.965Z,851.95
2017-03-07T00:47:24.593Z,851.92
2017-03-07T00:47:29.099Z,851.94
2017-03-07T00:47:33.755Z,851.91
2017-03-07T00:47:38.405Z,851.91
2017-03-07T00:47:43.127Z,851.9
2017-03-07T00:47:47.755Z,851.88
2017-03-07T00:47:52.405Z,851.86
2017-03-07T00:47:57.042Z,851.86
2017-03-07T00:48:01.680Z,851.83
2017-03-07T00:48:06.440Z,851.83
2017-03-07T00:48:11.098Z,851.87
2017-03-07T00:48:15.737Z,851.82
2017-03-07T00:48:20.377Z,851.82
2017-03-07T00:48:24.723Z,851.82
2017-03-07T00:48:29.213Z,851.82
2017-03-07T00:48:33.932Z,851.82
2017-03-07T00:48:38.581Z,851.84
2017-03-07T00:48:42.938Z,851.81
2017-03-07T00:48:47.601Z,851.81
2017-03-07T00:48:52.261Z,851.81
2017-03-07T00:48:56.749Z,851.79
2017-03-07T00:49:01.386Z,851.75
2017-03-07T00:49:06.032Z,851.79
2017-03-07T00:49:10.667Z,851.78
2017-03-07T00:49:15.301Z,851.78
2017-03-07T00:49:19.931Z,851.72
2017-03-07T00:49:24.588Z,851.74
2017-03-07T00:49:29.066Z,851.76
2017-03-07T00:49:33.708Z,851.74
2017-03-07T00:49:38.329Z,851.73
2017-03-07T00:49:42.676Z,851.71
2017-03-07T00:49:47.331Z,851.71
2017-03-07T00:49:51.845Z,851.7
2017-03-07T00:49:56.489Z,851.72
2017-03-07T00:50:00.971Z,851.71
2017-03-07T00:50:05.466Z,851.7
2017-03-07T00:50:09.969Z,851.7
2017-03-07T00:50:14.618Z,851.7
2017-03-07T00:50:19.273Z,851.66
2017-03-07T00:50:23.618Z,851.64
2017-03-07T00:50:28.108Z,851.65
2017-03-07T00:50:32.739Z,851.63
2017-03-07T00:50:37.363Z,851.64
2017-03-07T00:50:41.871Z,851.62
2017-03-07T00:50:46.504Z,851.57
2017-03-07T00:50:51.020Z,851.6
2017-03-07T00:50:55.645Z,851.56
2017-03-07T00:51:00.289Z,851.57
2017-03-07T00:51:04.946Z,851.57
2017-03-07T00:51:09.609Z,851.6
2017-03-07T00:51:14.246Z,851.59
2017-03-07T00:51:18.870Z,851.56
2017-03-07T00:51:23.389Z,851.59
2017-03-07T00:51:27.875Z,851.57
2017-03-07T00:51:32.401Z,851.53
2017-03-07T00:51:37.048Z,851.54
2017-03-07T00:51:41.549Z,851.54
2017-03-07T00:51:46.189Z,851.52
2017-03-07T00:51:50.831Z,851.52
2017-03-07T00:51:55.467Z,851.48
2017-03-07T00:52:00.109Z,851.51
2017-03-07T00:52:04.462Z,851.51
2017-03-07T00:52:09.118Z,851.5
2017-03-07T00:52:13.744Z,851.51
2017-03-07T00:52:18.255Z,851.48
2017-03-07T00:52:22.891Z,851.46
2017-03-07T00:52:27.530Z,851.51
2017-03-07T00:52:32.169Z,851.45
2017-03-07T00:52:36.809Z,851.48
2017-03-07T00:52:41.311Z,851.44
2017-03-07T00:52:45.955Z,851.43
2017-03-07T00:52:50.596Z,851.48
2017-03-07T00:52:55.238Z,851.46
2017-03-07T00:52:59.875Z,851.42
2017-03-07T00:53:04.507Z,851.4
2017-03-07T00:53:09.152Z,851.4
2017-03-07T00:53:13.802Z,851.45
2017-03-07T00:53:18.453Z,851.45
2017-03-07T00:53:23.099Z,851.43
2017-03-07T00:53:27.743Z,851.44
2017-03-07T00:53:32.370Z,851.44
2017-03-07T00:53:36.994Z,851.43
2017-03-07T00:53:41.657Z,851.42
2017-03-07T00:53:46.154Z,851.42
2017-03-07T00:53:50.794Z,851.4
2017-03-07T00:53:55.427Z,851.36
2017-03-07T00:54:00.065Z,851.43
2017-03-07T00:54:04.913Z,851.4
2017-03-07T00:54:09.400Z,851.4
2017-03-07T00:54:14.032Z,851.38
2017-03-07T00:54:18.674Z,851.36
2017-03-07T00:54:23.170Z,851.37
2017-03-07T00:54:27.818Z,851.35
2017-03-07T00:54:32.309Z,851.39
2017-03-07T00:54:36.813Z,851.35
2017-03-07T00:54:41.318Z,851.37
2017-03-07T00:54:45.853Z,851.36
2017-03-07T00:54:50.496Z,851.31
2017-03-07T00:54:55.136Z,851.33
2017-03-07T00:54:59.762Z,851.33
2017-03-07T00:55:04.383Z,851.31
2017-03-07T00:55:09.020Z,851.33
2017-03-07T00:55:13.664Z,851.27
2017-03-07T00:55:18.168Z,851.28
2017-03-07T00:55:22.801Z,851.25
2017-03-07T00:55:27.311Z,851.24
2017-03-07T00:55:31.963Z,851.31
2017-03-07T00:55:36.472Z,851.29
2017-03-07T00:55:41.117Z,851.27
2017-03-07T00:55:45.602Z,851.29
2017-03-07T00:55:50.238Z,851.25
2017-03-07T00:55:54.915Z,851.26
2017-03-07T00:55:59.569Z,851.23
2017-03-07T00:56:04.064Z,851.24
2017-03-07T00:56:08.559Z,851.26
2017-03-07T00:56:13.207Z,851.22
2017-03-07T00:56:17.695Z,851.24
2017-03-07T00:56:22.359Z,851.2
2017-03-07T00:56:27.000Z,851.18
2017-03-07T00:56:31.497Z,851.23
2017-03-07T00:56:36.154Z,851.22
2017-03-07T00:56:40.794Z,851.21
2017-03-07T00:56:45.440Z,851.21
2017-03-07T00:56:50.076Z,851.18
2017-03-07T00:56:54.711Z,851.15
2017-03-07T00:56:59.359Z,851.16
2017-03-07T00:57:03.847Z,851.2
2017-03-07T00:57:08.490Z,851.19
2017-03-07T00:57:13.144Z,851.2
2017-03-07T00:57:17.795Z,851.19
2017-03-07T00:57:22.282Z,851.16
2017-03-07T00:57:26.788Z,851.14
2017-03-07T00:57:31.437Z,851.15
2017-03-07T00:57:36.075Z,851.15